Time;durP1;ratioP1;P1;durP2;ratioP2;P2;SDS_P1;SDS_P2;PMS_P1;PMS_P2;Temp;Humidity;BMP_temperature;BMP_pressure;BME280_temperature;BME280_humidity;BME280_pressure;Samples;Min_cycle;Max_cycle;Signal;HPM_P1;HPM_P2
2024/03/30 00:01:28;;;;;;;10.70;4.90;;;;;;;10.06;55.75;99640.84;107412;1312;22262;-57
2024/03/30 00:03:53;;;;;;;9.00;4.30;;;;;;;10.01;55.66;99634.61;107415;1312;22319;-59
2024/03/30 00:06:19;;;;;;;7.90;4.70;;;;;;;9.96;55.63;99630.80;107420;1312;22247;-58
2024/03/30 00:08:44;;;;;;;11.00;5.10;;;;;;;9.89;55.75;99632.89;107371;1294;22971;-59
2024/03/30 00:11:09;;;;;;;8.40;5.00;;;;;;;9.83;56.09;99636.02;107264;1312;22229;-58
2024/03/30 00:13:35;;;;;;;9.20;4.80;;;;;;;9.76;56.12;99639.84;107400;1310;22223;-58
2024/03/30 00:16:10;;;;;;;12.00;5.60;;;;;;;9.70;56.34;99642.26;107392;1308;22488;-58
2024/03/30 00:18:36;;;;;;;14.70;6.70;;;;;;;9.64;56.74;99643.11;107343;1290;22260;-58
2024/03/30 00:21:03;;;;;;;12.70;6.80;;;;;;;9.59;57.65;99648.39;107249;1313;23070;-58
2024/03/30 00:23:31;;;;;;;15.70;6.90;;;;;;;9.51;57.60;99649.29;107298;1307;22275;-59
2024/03/30 00:25:57;;;;;;;14.40;7.60;;;;;;;9.47;57.20;99644.42;107289;1313;22173;-59
2024/03/30 00:28:23;;;;;;;12.90;6.80;;;;;;;9.45;57.21;99645.52;107246;1292;22502;-58
2024/03/30 00:30:49;;;;;;;14.50;6.50;;;;;;;9.41;56.91;99646.83;107261;1312;22926;-58
2024/03/30 00:33:16;;;;;;;12.30;6.00;;;;;;;9.35;56.85;99645.12;107419;1306;22354;-58
2024/03/30 00:35:42;;;;;;;10.50;4.90;;;;;;;9.31;56.91;99642.12;107407;1312;22300;-58
2024/03/30 00:38:07;;;;;;;10.40;4.90;;;;;;;9.27;57.04;99643.60;107362;1294;22286;-58
2024/03/30 00:40:34;;;;;;;7.90;4.60;;;;;;;9.22;57.14;99642.88;107371;1312;22940;-58
2024/03/30 00:43:01;;;;;;;7.60;4.90;;;;;;;9.16;57.20;99643.05;107420;1312;22329;-57
2024/03/30 00:45:26;;;;;;;9.70;5.10;;;;;;;9.09;57.19;99642.00;107410;1312;22279;-58
2024/03/30 00:47:51;;;;;;;9.40;5.00;;;;;;;9.01;57.01;99639.80;107333;1291;22289;-58
2024/03/30 00:50:17;;;;;;;8.60;4.60;;;;;;;8.91;57.07;99642.64;107236;1314;22401;-58
2024/03/30 00:52:42;;;;;;;12.10;5.80;;;;;;;8.81;56.86;99644.29;107327;1313;22283;-58
2024/03/30 00:55:08;;;;;;;9.70;5.20;;;;;;;8.68;57.92;99647.88;107379;1312;22307;-58
2024/03/30 00:57:33;;;;;;;7.90;5.10;;;;;;;8.60;57.54;99644.95;107287;1299;22431;-57
2024/03/30 00:59:58;;;;;;;9.10;5.10;;;;;;;8.55;57.71;99643.70;107356;1294;22464;-58
2024/03/30 01:02:24;;;;;;;17.00;5.80;;;;;;;8.48;57.65;99646.79;107402;1311;23158;-57
2024/03/30 01:04:49;;;;;;;14.20;6.00;;;;;;;8.42;57.86;99649.14;107248;1312;22247;-58
2024/03/30 01:07:15;;;;;;;13.60;5.70;;;;;;;8.36;57.98;99647.91;107401;1312;22338;-58
2024/03/30 01:09:40;;;;;;;13.40;5.40;;;;;;;8.28;57.77;99650.31;107325;1291;23188;-60
2024/03/30 01:12:06;;;;;;;9.90;5.80;;;;;;;8.19;57.93;99648.10;107326;1313;22951;-59
2024/03/30 01:14:33;;;;;;;9.50;4.90;;;;;;;8.13;58.18;99646.02;107333;1310;22281;-58
2024/03/30 01:16:59;;;;;;;10.20;5.40;;;;;;;8.08;58.60;99640.27;107367;1312;22202;-59
2024/03/30 01:19:25;;;;;;;7.20;5.20;;;;;;;8.04;58.39;99638.33;107356;1291;22228;-59
2024/03/30 01:21:51;;;;;;;8.50;4.60;;;;;;;7.97;58.64;99635.53;107280;1307;22252;-59
2024/03/30 01:24:17;;;;;;;12.00;5.60;;;;;;;7.92;58.73;99638.39;107429;1307;22950;-59
2024/03/30 01:26:56;;;;;;;7.20;5.20;;;;;;;7.90;58.72;99640.83;107415;1312;22301;-59
2024/03/30 01:29:24;;;;;;;11.60;5.90;;;;;;;7.88;58.99;99641.20;107338;1294;22289;-59
2024/03/30 01:31:50;;;;;;;10.10;4.50;;;;;;;7.87;59.01;99646.55;107349;1313;22309;-59
2024/03/30 01:34:16;;;;;;;13.00;5.30;;;;;;;7.82;58.85;99649.74;107450;1312;22251;-59
2024/03/30 01:36:41;;;;;;;10.70;5.40;;;;;;;7.77;58.81;99653.15;107399;1312;22251;-59
2024/03/30 01:39:07;;;;;;;6.90;4.60;;;;;;;7.70;58.98;99652.23;107375;1294;22991;-59
2024/03/30 01:41:35;;;;;;;10.60;5.00;;;;;;;7.64;58.93;99648.77;107341;1306;22486;-59
2024/03/30 01:44:01;;;;;;;12.00;5.20;;;;;;;7.55;58.95;99642.08;107400;1309;22254;-58
2024/03/30 01:46:27;;;;;;;7.40;5.20;;;;;;;7.46;59.07;99633.16;107392;1312;22269;-59
2024/03/30 01:48:53;;;;;;;9.80;5.70;;;;;;;7.42;59.32;99627.06;107268;1290;22989;-57
2024/03/30 01:51:19;;;;;;;8.20;4.50;;;;;;;7.38;59.55;99619.08;107422;1312;22284;-59
2024/03/30 01:53:45;;;;;;;10.40;5.80;;;;;;;7.37;59.73;99616.20;107397;1307;22250;-59
2024/03/30 01:56:11;;;;;;;11.80;5.00;;;;;;;7.35;59.67;99610.41;107406;1312;23018;-59
2024/03/30 01:58:37;;;;;;;9.00;4.70;;;;;;;7.32;59.86;99611.66;107419;1312;22224;-60
2024/03/30 02:01:03;;;;;;;9.20;4.70;;;;;;;7.29;59.89;99614.61;107249;1298;22315;-58
2024/03/30 02:03:28;;;;;;;13.70;5.10;;;;;;;7.24;59.98;99612.50;107386;1312;23028;-58
2024/03/30 02:05:55;;;;;;;10.70;5.40;;;;;;;7.21;59.93;99617.71;107404;1312;22256;-58
2024/03/30 02:08:23;;;;;;;9.10;4.80;;;;;;;7.18;59.99;99622.73;107322;1313;22351;-58
2024/03/30 02:10:49;;;;;;;9.80;5.80;;;;;;;7.14;60.19;99628.29;107381;1294;22373;-58
2024/03/30 02:13:15;;;;;;;10.60;5.70;;;;;;;7.11;60.18;99621.33;107408;1312;22426;-59
2024/03/30 02:15:40;;;;;;;10.20;5.20;;;;;;;7.09;60.30;99620.67;107411;1305;22349;-59
2024/03/30 02:18:06;;;;;;;11.20;5.50;;;;;;;7.05;59.93;99621.95;107424;1304;22269;-59
2024/03/30 02:20:32;;;;;;;11.10;6.00;;;;;;;6.99;60.42;99624.78;107395;1294;22271;-58
2024/03/30 02:22:57;;;;;;;12.20;5.10;;;;;;;6.91;60.32;99623.38;107386;1310;22231;-61
2024/03/30 02:25:23;;;;;;;8.20;4.30;;;;;;;6.85;62.62;99625.02;107339;1310;22317;-61
2024/03/30 02:27:50;;;;;;;8.90;4.90;;;;;;;6.81;61.23;99626.98;107285;1313;22783;-60
2024/03/30 02:30:26;;;;;;;;;;;;;;;6.78;60.98;99634.23;107367;1293;23084;-60
2024/03/30 02:32:53;;;;;;;19.50;5.00;;;;;;;6.71;62.35;99645.66;107471;1307;22288;-61
2024/03/30 02:35:18;;;;;;;;;;;;;;;6.63;64.30;99652.98;107432;1312;23151;-61
2024/03/30 02:37:45;;;;;;;8.00;4.70;;;;;;;6.56;63.23;99654.45;107374;1312;22259;-59
2024/03/30 02:40:11;;;;;;;8.90;4.50;;;;;;;6.52;61.80;99657.09;107358;1294;22270;-61
2024/03/30 02:42:37;;;;;;;9.60;5.10;;;;;;;6.47;61.50;99660.41;107370;1312;22556;-60
2024/03/30 02:45:02;;;;;;;10.90;4.90;;;;;;;6.44;61.43;99664.90;107227;1306;22269;-61
2024/03/30 02:47:28;;;;;;;8.80;4.80;;;;;;;6.40;61.21;99670.95;107215;1313;23265;-61
2024/03/30 02:49:53;;;;;;;6.10;4.70;;;;;;;6.33;61.19;99668.14;107178;1290;22507;-62
2024/03/30 02:52:19;;;;;;;11.80;5.10;;;;;;;6.27;61.23;99670.79;107278;1312;23048;-61
2024/03/30 02:54:44;;;;;;;10.20;5.00;;;;;;;6.23;61.51;99671.03;107375;1310;22269;-61
2024/03/30 02:57:10;;;;;;;9.40;5.60;;;;;;;6.22;61.56;99675.67;107374;1312;22329;-61
2024/03/30 02:59:35;;;;;;;7.80;5.10;;;;;;;6.21;61.57;99678.77;107393;1305;22197;-60
2024/03/30 03:02:01;;;;;;;6.80;4.90;;;;;;;6.20;61.41;99678.96;107355;1294;22637;-60
2024/03/30 03:04:26;;;;;;;11.00;5.80;;;;;;;6.15;61.46;99678.51;107396;1311;22343;-60
2024/03/30 03:06:53;;;;;;;12.40;4.90;;;;;;;6.10;61.42;99680.45;107381;1312;22437;-61
2024/03/30 03:09:18;;;;;;;18.10;5.40;;;;;;;6.05;61.71;99677.44;107240;1312;22377;-61
2024/03/30 03:11:43;;;;;;;10.30;5.10;;;;;;;6.02;62.43;99680.05;107330;1294;22270;-60
2024/03/30 03:14:09;;;;;;;15.30;5.80;;;;;;;5.98;62.11;99681.63;107253;1309;22229;-61
2024/03/30 03:16:34;;;;;;;8.30;5.10;;;;;;;5.93;61.91;99689.04;107395;1312;22473;-60
2024/03/30 03:19:00;;;;;;;8.30;4.90;;;;;;;5.90;61.68;99689.94;107378;1312;22358;-60
2024/03/30 03:21:25;;;;;;;10.80;4.60;;;;;;;5.83;62.14;99687.08;107236;1295;22411;-60
2024/03/30 03:23:51;;;;;;;8.20;4.20;;;;;;;5.73;62.20;99686.87;107394;1310;23186;-60
2024/03/30 03:26:16;;;;;;;10.80;4.80;;;;;;;5.68;62.17;99685.23;107368;1312;22250;-60
2024/03/30 03:28:42;;;;;;;8.20;4.90;;;;;;;5.65;62.12;99690.39;107261;1312;22230;-60
2024/03/30 03:31:08;;;;;;;9.80;4.70;;;;;;;5.63;62.37;99690.58;107351;1296;22389;-60
2024/03/30 03:33:33;;;;;;;9.30;4.80;;;;;;;5.61;62.16;99685.98;107521;1308;22756;-60
2024/03/30 03:36:00;;;;;;;11.70;5.70;;;;;;;5.59;62.38;99680.02;107506;1312;22302;-60
2024/03/30 03:38:25;;;;;;;14.60;6.70;;;;;;;5.58;62.49;99673.02;107520;1312;22260;-59
2024/03/30 03:40:51;;;;;;;11.30;6.50;;;;;;;5.57;62.62;99670.30;107513;1300;22370;-59
2024/03/30 03:43:16;;;;;;;11.10;6.70;;;;;;;5.54;62.37;99666.40;107520;1293;22345;-60
2024/03/30 03:45:48;;;;;;;12.30;7.30;;;;;;;5.55;62.53;99667.24;107524;1312;22932;-60
2024/03/30 03:48:14;;;;;;;10.80;6.00;;;;;;;5.53;62.90;99666.92;107475;1308;22249;-60
2024/03/30 03:50:40;;;;;;;8.00;5.30;;;;;;;5.49;62.89;99671.07;107515;1312;22478;-59
2024/03/30 03:53:06;;;;;;;8.00;4.80;;;;;;;5.44;62.38;99670.79;107488;1296;22294;-60
2024/03/30 03:55:32;;;;;;;9.60;4.80;;;;;;;5.37;62.29;99669.65;107519;1312;22387;-60
2024/03/30 03:57:58;;;;;;;7.80;4.90;;;;;;;5.29;62.54;99669.73;107511;1309;22294;-60
2024/03/30 04:00:23;;;;;;;13.40;5.00;;;;;;;5.24;62.53;99668.92;107507;1305;22247;-60
2024/03/30 04:02:49;;;;;;;7.40;4.90;;;;;;;5.18;62.49;99666.77;107328;1292;22272;-60
2024/03/30 04:05:15;;;;;;;10.10;5.60;;;;;;;5.12;62.69;99665.99;107504;1312;22412;-60
2024/03/30 04:07:40;;;;;;;8.60;4.80;;;;;;;5.09;62.90;99663.28;107444;1308;22245;-60
2024/03/30 04:10:07;;;;;;;10.10;5.80;;;;;;;5.05;62.63;99666.40;107321;1313;22254;-60
2024/03/30 04:12:33;;;;;;;9.20;5.10;;;;;;;4.99;62.93;99669.70;107454;1291;22295;-59
2024/03/30 04:14:58;;;;;;;8.70;6.10;;;;;;;4.95;63.17;99672.63;107512;1313;22219;-60
2024/03/30 04:17:24;;;;;;;8.80;5.30;;;;;;;4.94;62.97;99669.73;107500;1312;22248;-60
2024/03/30 04:19:49;;;;;;;12.30;6.50;;;;;;;4.90;62.95;99670.45;107351;1312;22251;-60
2024/03/30 04:22:14;;;;;;;9.50;5.80;;;;;;;4.86;63.09;99668.95;107479;1294;22849;-60
2024/03/30 04:24:40;;;;;;;13.20;6.70;;;;;;;4.83;63.22;99664.70;107340;1312;23143;-60
2024/03/30 04:27:05;;;;;;;20.50;8.40;;;;;;;4.80;63.24;99664.21;107343;1312;22252;-60
2024/03/30 04:29:31;;;;;;;13.30;6.10;;;;;;;4.80;63.65;99667.11;107524;1312;24318;-59
2024/03/30 04:31:56;;;;;;;11.80;5.70;;;;;;;4.78;63.52;99665.60;107507;1290;22401;-60
2024/03/30 04:34:22;;;;;;;13.80;6.30;;;;;;;4.79;63.75;99671.05;107490;1305;22327;-59
2024/03/30 04:36:47;;;;;;;13.70;5.80;;;;;;;4.81;63.81;99674.95;107381;1312;23397;-60
2024/03/30 04:39:13;;;;;;;8.60;5.60;;;;;;;4.83;63.68;99675.11;107486;1312;22295;-57
2024/03/30 04:41:38;;;;;;;11.60;6.00;;;;;;;4.84;63.49;99676.30;107259;1312;23266;-57
2024/03/30 04:44:03;;;;;;;12.00;6.30;;;;;;;4.81;63.47;99677.17;107362;1293;22278;-58
2024/03/30 04:46:29;;;;;;;11.20;6.40;;;;;;;4.78;63.48;99671.58;107356;1308;23133;-59
2024/03/30 04:48:54;;;;;;;10.90;6.20;;;;;;;4.77;63.61;99670.73;107378;1310;22376;-58
2024/03/30 04:51:20;;;;;;;10.60;6.30;;;;;;;4.74;68.91;99670.91;107231;1312;22355;-58
2024/03/30 04:53:45;;;;;;;12.40;6.80;;;;;;;4.71;68.10;99672.14;107380;1294;23424;-57
2024/03/30 04:56:11;;;;;;;11.80;6.10;;;;;;;4.74;65.78;99675.02;107392;1310;23321;-59
2024/03/30 04:58:36;;;;;;;15.00;6.60;;;;;;;4.74;65.55;99672.45;107226;1312;22297;-58
2024/03/30 05:01:05;;;;;;;11.00;6.70;;;;;;;4.79;65.47;99679.59;107411;1313;22251;-58
2024/03/30 05:03:31;;;;;;;15.60;6.20;;;;;;;4.84;65.11;99683.47;107376;1295;22552;-58
2024/03/30 05:05:57;;;;;;;9.80;6.30;;;;;;;4.88;64.73;99687.55;107248;1312;22346;-58
2024/03/30 05:08:23;;;;;;;12.60;6.50;;;;;;;4.91;64.86;99691.96;107402;1307;22900;-57
2024/03/30 05:10:52;;;;;;;9.40;6.10;;;;;;;4.94;65.79;99693.47;107370;1312;22353;-58
2024/03/30 05:13:17;;;;;;;12.90;6.10;;;;;;;4.94;66.86;99696.71;107373;1294;22209;-57
2024/03/30 05:15:43;;;;;;;8.60;5.90;;;;;;;5.01;65.63;99697.17;107386;1312;22340;-57
2024/03/30 05:18:10;;;;;;;12.30;6.70;;;;;;;5.09;65.54;99693.52;107395;1312;22290;-58
2024/03/30 05:21:10;;;;;;;13.00;6.70;;;;;;;5.18;65.53;99691.21;107381;1312;22253;-58
2024/03/30 05:23:33;;;;;;;10.90;5.90;;;;;;;5.30;65.72;99687.66;107387;1294;23174;-58
2024/03/30 05:26:00;;;;;;;13.10;6.90;;;;;;;5.43;66.01;99687.71;107380;1307;22255;-57
2024/03/30 05:28:27;;;;;;;9.30;6.40;;;;;;;5.55;65.79;99688.96;107406;1312;22422;-57
2024/03/30 05:30:54;;;;;;;13.20;7.00;;;;;;;5.66;65.64;99686.95;107377;1307;22939;-59
2024/03/30 05:33:20;;;;;;;18.00;9.00;;;;;;;5.78;65.64;99686.80;107306;1289;22300;-58
2024/03/30 05:35:47;;;;;;;12.20;6.90;;;;;;;5.91;65.66;99687.69;107355;1313;22981;-57
2024/03/30 05:38:13;;;;;;;9.90;7.60;;;;;;;6.05;65.76;99687.01;107235;1312;22922;-57
2024/03/30 05:40:39;;;;;;;17.30;9.00;;;;;;;6.20;65.96;99686.48;107261;1312;22369;-58
2024/03/30 05:43:05;;;;;;;17.30;8.70;;;;;;;6.36;66.14;99688.12;107203;1290;22245;-58
2024/03/30 05:45:32;;;;;;;12.70;8.30;;;;;;;6.50;66.20;99686.55;107388;1293;22346;-58
2024/03/30 05:47:57;;;;;;;17.40;8.20;;;;;;;6.66;66.43;99680.84;107240;1314;22237;-59
2024/03/30 05:50:25;;;;;;;20.40;9.80;;;;;;;6.82;66.31;99676.29;107482;1312;22267;-60
2024/03/30 05:52:51;;;;;;;14.40;9.70;;;;;;;7.03;66.37;99674.73;107341;1312;22263;-60
2024/03/30 05:55:16;;;;;;;15.50;11.00;;;;;;;7.26;66.25;99669.55;107456;1302;22359;-60
2024/03/30 05:57:42;;;;;;;22.90;12.00;;;;;;;7.49;66.12;99663.98;107364;1310;22410;-60
2024/03/30 06:00:12;;;;;;;17.80;10.90;;;;;;;7.71;66.10;99667.16;107497;1310;22284;-59
2024/03/30 06:02:38;;;;;;;15.40;11.70;;;;;;;7.93;66.49;99665.83;107324;1309;22283;-60
2024/03/30 06:05:04;;;;;;;19.10;11.30;;;;;;;8.16;66.32;99660.88;107487;1294;23040;-59
2024/03/30 06:07:30;;;;;;;17.80;8.30;;;;;;;8.41;66.57;99657.94;107559;1312;22255;-60
2024/03/30 06:09:55;;;;;;;17.20;9.40;;;;;;;8.69;66.98;99652.66;107556;1312;22254;-60
2024/03/30 06:12:20;;;;;;;13.60;8.00;;;;;;;8.98;66.60;99653.30;107583;1312;22411;-61
2024/03/30 06:14:46;;;;;;;16.60;8.40;;;;;;;9.22;66.53;99654.41;107502;1293;22369;-61
2024/03/30 06:17:12;;;;;;;23.30;10.30;;;;;;;9.45;67.30;99654.09;107526;1312;22729;-59
2024/03/30 06:19:37;;;;;;;20.80;10.00;;;;;;;9.69;67.45;99658.45;107370;1296;22308;-60
2024/03/30 06:22:03;;;;;;;16.60;10.10;;;;;;;9.96;66.99;99656.98;107421;1311;22288;-60
2024/03/30 06:24:28;;;;;;;11.60;5.60;;;;;;;10.27;67.00;99656.06;107523;1290;22396;-60
2024/03/30 06:26:54;;;;;;;13.60;5.50;;;;;;;10.69;67.54;99650.08;107335;1313;22919;-61
2024/03/30 06:29:19;;;;;;;12.90;5.70;;;;;;;11.19;68.30;99648.95;107491;1305;22331;-60
2024/03/30 06:31:45;;;;;;;10.00;4.70;;;;;;;11.68;68.33;99648.92;107546;1307;23214;-60
2024/03/30 06:34:10;;;;;;;12.00;5.40;;;;;;;12.12;69.46;99646.30;107363;1293;22431;-61
2024/03/30 06:36:36;;;;;;;12.60;5.30;;;;;;;12.46;68.34;99649.79;107566;1291;22400;-60
2024/03/30 06:39:02;;;;;;;15.40;5.50;;;;;;;12.78;67.97;99651.09;107562;1305;22210;-60
2024/03/30 06:44:11;;;;;;;10.20;4.70;;;;;;;13.35;68.50;99651.86;107555;1312;22269;-61
2024/03/30 06:46:37;;;;;;;15.20;5.20;;;;;;;13.56;68.16;99653.52;107552;1294;22362;-60
2024/03/30 06:49:02;;;;;;;17.10;5.00;;;;;;;13.76;68.19;99655.76;107572;1306;22342;-60
2024/03/30 06:51:29;;;;;;;11.00;5.00;;;;;;;13.93;68.30;99663.98;107545;1304;22337;-60
2024/03/30 06:53:54;;;;;;;12.70;5.80;;;;;;;14.09;68.21;99665.84;107366;1307;22186;-60
2024/03/30 06:56:20;;;;;;;12.70;5.50;;;;;;;14.26;68.02;99668.03;107436;1290;23062;-60
2024/03/30 06:58:45;;;;;;;10.00;4.70;;;;;;;14.42;67.92;99666.55;107487;1312;22262;-60
2024/03/30 07:01:11;;;;;;;14.20;5.00;;;;;;;14.64;67.70;99666.75;107331;1304;22251;-60
2024/03/30 07:03:36;;;;;;;12.40;5.20;;;;;;;14.70;67.57;99669.05;107536;1312;23014;-60
2024/03/30 07:06:01;;;;;;;10.10;4.90;;;;;;;14.82;67.73;99667.44;107284;1298;22373;-60
2024/03/30 07:08:27;;;;;;;13.50;5.50;;;;;;;14.99;67.34;99668.70;107449;1307;22420;-60
2024/03/30 07:10:52;;;;;;;11.30;6.00;;;;;;;15.11;67.16;99672.73;107521;1308;22296;-61
2024/03/30 07:13:18;;;;;;;9.20;5.20;;;;;;;15.26;66.95;99675.83;107449;1312;22383;-60
2024/03/30 07:15:43;;;;;;;10.40;5.20;;;;;;;15.55;66.71;99676.42;107504;1302;22321;-60
2024/03/30 07:18:11;;;;;;;11.80;4.60;;;;;;;15.76;66.07;99681.05;107306;1313;22350;-60
2024/03/30 07:20:37;;;;;;;9.50;4.90;;;;;;;15.86;65.86;99677.23;107266;1306;179858;-60
2024/03/30 07:23:02;;;;;;;11.40;5.40;;;;;;;16.08;66.31;99672.23;107424;1300;22437;-60
2024/03/30 07:25:28;;;;;;;13.40;4.80;;;;;;;16.23;65.64;99664.28;107486;1301;22328;-61
2024/03/30 07:27:53;;;;;;;11.30;5.60;;;;;;;16.48;65.23;99660.98;107506;1312;22320;-60
2024/03/30 07:30:19;;;;;;;14.20;5.10;;;;;;;16.74;65.26;99662.17;107569;1312;22448;-59
2024/03/30 07:32:44;;;;;;;14.60;4.80;;;;;;;17.17;65.86;99666.63;107545;1312;22252;-60
2024/03/30 07:35:09;;;;;;;12.60;5.80;;;;;;;17.74;65.10;99661.83;107515;1312;22366;-60
2024/03/30 07:37:37;;;;;;;13.70;5.20;;;;;;;18.31;64.97;99657.90;107478;1296;22359;-60
2024/03/30 07:40:02;;;;;;;9.40;5.10;;;;;;;18.78;64.84;99646.81;107417;1306;22311;-62
2024/03/30 07:42:28;;;;;;;9.20;4.60;;;;;;;19.24;64.77;99639.92;107473;1313;22320;-60
2024/03/30 07:44:54;;;;;;;12.60;5.40;;;;;;;19.59;63.29;99640.01;107438;1313;22280;-60
2024/03/30 07:47:20;;;;;;;9.90;4.70;;;;;;;19.89;61.74;99639.63;107529;1294;22376;-60
2024/03/30 07:49:46;;;;;;;13.10;4.80;;;;;;;20.15;62.18;99641.84;107392;1313;22261;-60
2024/03/30 07:52:12;;;;;;;10.10;5.00;;;;;;;20.54;62.41;99643.70;107595;1289;22809;-60
2024/03/30 07:54:38;;;;;;;9.10;5.10;;;;;;;21.20;61.03;99646.52;107612;1312;22322;-60
2024/03/30 07:57:04;;;;;;;7.80;4.30;;;;;;;21.74;59.80;99644.31;107562;1293;22653;-60
2024/03/30 07:59:29;;;;;;;8.80;4.20;;;;;;;22.37;58.56;99647.15;107630;1312;22324;-60
2024/03/30 08:01:54;;;;;;;7.50;4.80;;;;;;;22.71;57.79;99644.46;107382;1304;22295;-60
2024/03/30 08:04:21;;;;;;;8.60;5.10;;;;;;;23.12;58.16;99641.77;107468;1307;22382;-61
2024/03/30 08:06:49;;;;;;;8.70;5.40;;;;;;;23.55;56.36;99637.77;107450;1294;22327;-61
2024/03/30 08:09:20;;;;;;;11.00;5.10;;;;;;;23.91;53.85;99636.03;107503;1313;22457;-59
2024/03/30 08:11:45;;;;;;;9.30;4.80;;;;;;;23.93;54.61;99637.12;107664;1310;22381;-61
2024/03/30 08:14:11;;;;;;;8.80;4.60;;;;;;;24.57;56.48;99642.63;107595;1313;22368;-61
2024/03/30 08:16:37;;;;;;;6.90;4.50;;;;;;;24.87;55.11;99637.23;107441;1289;22281;-61
2024/03/30 08:19:04;;;;;;;11.30;4.70;;;;;;;25.22;54.21;99637.27;107680;1312;22223;-61
2024/03/30 08:21:30;;;;;;;8.40;4.50;;;;;;;25.31;52.58;99636.56;107625;1304;22507;-61
2024/03/30 08:23:56;;;;;;;6.60;4.00;;;;;;;24.65;48.78;99629.79;107558;1307;22342;-61
2024/03/30 08:26:21;;;;;;;9.40;4.70;;;;;;;23.97;52.15;99627.44;107562;1290;22372;-61
2024/03/30 08:28:48;;;;;;;7.40;4.70;;;;;;;23.82;52.99;99624.66;107500;1291;22516;-61
2024/03/30 08:31:14;;;;;;;7.70;4.00;;;;;;;24.33;51.24;99623.70;107612;1312;22259;-62
2024/03/30 08:33:39;;;;;;;6.60;4.00;;;;;;;24.55;51.32;99623.61;107513;1308;22204;-62
2024/03/30 08:36:05;;;;;;;7.20;3.90;;;;;;;25.04;51.31;99622.16;107543;1307;22520;-62
2024/03/30 08:38:30;;;;;;;8.70;4.20;;;;;;;25.71;51.15;99626.97;107376;1295;22308;-62
2024/03/30 08:40:55;;;;;;;7.50;4.00;;;;;;;26.14;48.57;99626.06;107509;1306;22475;-62
2024/03/30 08:43:25;;;;;;;7.80;4.30;;;;;;;26.67;49.68;99626.67;107528;1308;22440;-62
2024/03/30 08:45:54;;;;;;;7.80;3.80;;;;;;;26.83;45.58;99624.04;107542;1312;23082;-62
2024/03/30 08:48:19;;;;;;;9.00;4.10;;;;;;;26.35;45.24;99623.83;107560;1293;22385;-61
2024/03/30 08:50:46;;;;;;;9.50;3.90;;;;;;;26.08;47.81;99626.04;107543;1307;23335;-62
2024/03/30 08:53:11;;;;;;;7.90;4.20;;;;;;;26.45;48.15;99625.07;107559;1304;22321;-62
2024/03/30 08:55:38;;;;;;;6.70;3.90;;;;;;;27.09;47.46;99622.49;107609;1310;22298;-62
2024/03/30 08:58:06;;;;;;;6.50;3.80;;;;;;;27.44;46.59;99622.77;107526;1290;22365;-62
2024/03/30 09:00:31;;;;;;;6.90;3.80;;;;;;;27.47;44.16;99628.80;107601;1307;22269;-61
2024/03/30 09:02:57;;;;;;;8.70;4.40;;;;;;;27.41;43.37;99623.62;107373;1306;22343;-61
2024/03/30 09:05:22;;;;;;;6.20;3.90;;;;;;;27.90;44.62;99623.84;107422;1310;22471;-62
2024/03/30 09:07:48;;;;;;;9.50;4.30;;;;;;;28.60;44.04;99626.52;107599;1291;22335;-62
2024/03/30 09:10:13;;;;;;;9.10;4.10;;;;;;;28.71;43.79;99627.88;107526;1304;22252;-62
2024/03/30 09:12:39;;;;;;;7.40;3.90;;;;;;;28.49;42.32;99626.80;107570;1304;22450;-62
2024/03/30 09:15:06;;;;;;;9.20;3.90;;;;;;;28.50;41.47;99625.55;107606;1304;22298;-62
2024/03/30 09:17:31;;;;;;;8.10;4.10;;;;;;;28.44;41.95;99624.04;107380;1292;22283;-62
2024/03/30 09:19:56;;;;;;;15.40;4.90;;;;;;;28.35;42.52;99620.92;107561;1310;22412;-62
2024/03/30 09:22:22;;;;;;;8.90;3.70;;;;;;;28.74;42.61;99618.48;107547;1312;22428;-62
2024/03/30 09:24:49;;;;;;;7.00;4.00;;;;;;;29.15;41.04;99612.53;107386;1312;22265;-61
2024/03/30 09:27:14;;;;;;;5.90;3.60;;;;;;;28.83;40.25;99616.92;107554;1307;22367;-61
2024/03/30 09:29:40;;;;;;;11.10;4.00;;;;;;;28.79;40.81;99617.55;107571;1292;22442;-61
2024/03/30 09:32:05;;;;;;;6.40;3.10;;;;;;;28.69;38.39;99620.56;107396;1305;22320;-61
2024/03/30 09:34:31;;;;;;;11.00;3.80;;;;;;;28.53;39.94;99623.05;107408;1307;23485;-61
2024/03/30 09:36:56;;;;;;;10.10;3.70;;;;;;;29.53;40.00;99620.80;107416;1305;22335;-62
2024/03/30 09:39:21;;;;;;;6.50;3.80;;;;;;;30.14;37.45;99621.52;107198;1295;22471;-61
2024/03/30 09:41:53;;;;;;;8.80;3.40;;;;;;;30.13;36.30;99619.02;107319;1305;24824;-63
2024/03/30 09:44:19;;;;;;;6.40;3.90;;;;;;;30.30;36.68;99617.88;107289;1312;23072;-65
2024/03/30 09:46:45;;;;;;;6.40;3.30;;;;;;;30.56;35.46;99614.98;107282;1307;22391;-65
2024/03/30 09:49:14;;;;;;;9.90;3.70;;;;;;;30.33;36.20;99612.16;107384;1294;22393;-63
2024/03/30 09:51:42;;;;;;;8.60;4.00;;;;;;;30.58;35.97;99607.58;107468;1307;22320;-65
2024/03/30 11:46:14;;;;;;;10.80;3.20;;;;;;;31.39;26.92;99533.30;105899;1282;563676;-61
2024/03/30 11:48:41;;;;;;;6.60;2.90;;;;;;;31.68;26.75;99525.00;106086;1286;93486;-59
2024/03/30 11:51:20;;;;;;;6.90;3.20;;;;;;;31.77;26.50;99525.44;105791;1291;22610;-61
2024/03/30 11:53:46;;;;;;;9.40;3.30;;;;;;;31.71;26.59;99521.98;106698;1298;22709;-61
2024/03/30 11:56:14;;;;;;;17.10;3.90;;;;;;;32.10;27.14;99526.02;106856;1286;25409;-62
2024/03/30 11:58:42;;;;;;;8.70;2.80;;;;;;;32.82;26.66;99524.30;106608;1288;22580;-62
2024/03/30 12:01:09;;;;;;;12.20;3.60;;;;;;;33.29;26.29;99523.30;106714;1291;23157;-62
2024/03/30 12:03:36;;;;;;;9.20;2.90;;;;;;;33.49;26.66;99517.10;105873;1288;22707;-61
2024/03/30 12:06:04;;;;;;;22.00;5.20;;;;;;;33.69;26.44;99511.38;106138;1289;22975;-62
2024/03/30 12:08:31;;;;;;;14.40;4.40;;;;;;;33.97;26.64;99512.29;106561;1284;22837;-62
2024/03/30 12:11:02;;;;;;;11.90;3.90;;;;;;;34.21;26.47;99507.56;106279;1296;22598;-61
2024/03/30 12:13:38;;;;;;;16.30;4.50;;;;;;;34.24;26.69;99517.68;106279;1292;22584;-61
2024/03/30 12:16:04;;;;;;;;;;;;;;;34.01;26.18;99519.14;105948;1288;22546;-62
2024/03/30 12:18:30;;;;;;;21.20;5.10;;;;;;;33.36;26.56;99523.17;105895;1291;22580;-62
2024/03/30 12:20:56;;;;;;;15.70;4.80;;;;;;;33.35;26.76;99523.71;105122;1283;24254;-61
2024/03/30 12:23:23;;;;;;;14.50;4.50;;;;;;;33.09;26.44;99523.55;104762;1291;22696;-61
2024/03/30 12:25:49;;;;;;;21.00;4.40;;;;;;;32.47;26.05;99523.37;104965;1285;23194;-62
2024/03/30 12:28:16;;;;;;;12.60;3.90;;;;;;;32.13;27.06;99516.02;105233;1291;22580;-62
2024/03/30 12:30:44;;;;;;;22.40;3.80;;;;;;;32.18;26.97;99520.80;105416;1283;22583;-62
2024/03/30 12:33:10;;;;;;;12.50;4.30;;;;;;;31.78;27.21;99512.73;105425;1290;24177;-62
2024/03/30 12:35:36;;;;;;;14.90;4.30;;;;;;;31.45;27.91;99506.61;105376;1293;22802;-62
2024/03/30 12:38:03;;;;;;;22.60;4.90;;;;;;;31.73;27.52;99506.09;107840;1289;22592;-62
2024/03/30 12:40:34;;;;;;;16.30;5.40;;;;;;;31.62;27.64;99501.99;105217;1283;23787;-62
2024/03/30 12:43:00;;;;;;;13.10;4.50;;;;;;;31.62;27.08;99499.55;106183;1291;23608;-62
2024/03/30 12:45:26;;;;;;;13.90;4.70;;;;;;;31.31;27.52;99495.25;104933;1284;24323;-61
2024/03/30 12:47:54;;;;;;;20.70;4.70;;;;;;;31.22;27.88;99489.61;105272;1284;22701;-62
2024/03/30 12:50:25;;;;;;;16.50;5.10;;;;;;;31.44;28.14;99484.44;105284;1292;22580;-61
2024/03/30 12:52:51;;;;;;;18.20;4.80;;;;;;;31.41;27.92;99482.67;105076;1284;22561;-62
2024/03/30 12:55:17;;;;;;;18.00;4.40;;;;;;;30.95;28.31;99485.27;105319;1293;22575;-61
2024/03/30 12:57:44;;;;;;;26.70;5.60;;;;;;;30.89;28.16;99483.89;105219;1287;24361;-62
2024/03/30 13:00:16;;;;;;;24.60;5.80;;;;;;;30.94;28.30;99478.37;105771;1284;22560;-61
2024/03/30 13:03:13;;;;;;;41.70;6.90;;;;;;;31.11;27.94;99477.77;105338;1293;22528;-63
2024/03/30 13:05:38;;;;;;;40.30;7.90;;;;;;;30.55;27.44;99470.70;105415;1282;25614;-62
2024/03/30 13:08:08;;;;;;;29.20;6.80;;;;;;;29.92;27.55;99472.41;105418;1283;22554;-61
2024/03/30 13:10:35;;;;;;;29.40;7.70;;;;;;;29.34;28.38;99471.65;105323;1288;22573;-64
2024/03/30 13:13:00;;;;;;;;;;;;;;;28.79;28.77;99467.19;105608;1291;22693;-62
2024/03/30 13:15:26;;;;;;;29.40;8.00;;;;;;;28.48;29.25;99471.08;105865;1285;22938;-62
2024/03/30 13:17:52;;;;;;;37.40;7.40;;;;;;;28.11;29.41;99460.93;105458;1283;25439;-64